Novy Urengoy, Russia
Current Conditions -  °F | °C
As of 6:00 PM on Thursday 30 Oct 2014 (Local Time) from USRR Reporting Station
Light Snow Light Snow  
Wind Chill:   Ceiling: 600
Heat Index: 16°   Visibility: 1.6mi
Dew Point: 14°   Wind: 9mph
Humidity: 93%   Direction: 160°SSE
Pressure: 29.74"   Gusts: NA
Location:  65.48°N, 76.52°E
Report Text: USRR 301300Z 16004MPS 2600 -SN OVC006 M09/M10 Q1007 TEMPO 1000SHSN BKN004 BKN015CB RMK QBB180 OBST OBSC QFE750 07////40
Loading
Personal Weather Stations






























Interactive Weather Map
Tropical Storm Tracking
New forecast layout! Learn more

10-Day Weather Forecast

Advertisements
Track Severe Weather on mobile